Time;durP1;ratioP1;P1;durP2;ratioP2;P2;SDS_P1;SDS_P2;PMS_P1;PMS_P2;Temp;Humidity;BMP_temperature;BMP_pressure;BME280_temperature;BME280_humidity;BME280_pressure;Samples;Min_cycle;Max_cycle;Signal;HPM_P1;HPM_P2
2023/09/16 00:02:12;;;;;;;5.70;4.95;;;;;;;19.45;60.49;99313.31;5153779;27;20039;-79
2023/09/16 00:04:40;;;;;;;6.70;6.05;;;;;;;19.27;61.48;99314.13;5133089;27;20035;-79
2023/09/16 00:07:07;;;;;;;6.97;5.93;;;;;;;19.23;62.17;99319.78;5150319;27;20057;-78
2023/09/16 00:09:35;;;;;;;6.63;4.93;;;;;;;19.30;61.76;99320.06;5149783;27;20055;-78
2023/09/16 00:12:01;;;;;;;5.70;5.10;;;;;;;19.37;61.63;99321.19;5149365;27;20207;-78
2023/09/16 00:14:29;;;;;;;5.65;5.00;;;;;;;19.30;61.70;99317.38;5149594;27;20047;-77
2023/09/16 00:16:58;;;;;;;6.40;4.95;;;;;;;19.30;61.49;99316.53;5148857;27;20046;-78
2023/09/16 00:19:25;;;;;;;7.43;4.97;;;;;;;19.02;61.44;99273.38;5148985;27;20043;-78
2023/09/16 00:21:55;;;;;;;6.72;5.93;;;;;;;18.35;62.38;99177.47;5151029;27;20056;-78
2023/09/16 00:24:22;;;;;;;6.13;5.50;;;;;;;19.22;62.16;99314.53;5150704;27;20039;-79
2023/09/16 00:26:48;;;;;;;6.15;5.43;;;;;;;19.23;61.91;99321.63;5151659;27;20096;-79
2023/09/16 00:29:16;;;;;;;5.72;5.07;;;;;;;19.17;62.09;99319.50;5153158;27;20102;-79
2023/09/16 00:31:43;;;;;;;6.63;5.45;;;;;;;19.20;61.91;99314.69;5151681;27;20035;-77
2023/09/16 00:34:09;;;;;;;6.65;5.53;;;;;;;19.17;62.23;99317.66;5152183;27;20102;-79
2023/09/16 00:36:36;;;;;;;5.95;4.97;;;;;;;19.14;62.67;99317.09;5153608;27;20061;-78
2023/09/16 00:39:04;;;;;;;6.50;5.20;;;;;;;19.16;62.79;99309.72;5151813;27;20039;-79
2023/09/16 00:41:32;;;;;;;5.88;4.72;;;;;;;19.15;62.85;99310.72;5152470;27;20088;-79
2023/09/16 00:44:00;;;;;;;5.82;5.20;;;;;;;19.08;63.00;99313.13;5152526;27;20180;-79
2023/09/16 00:46:27;;;;;;;5.35;4.38;;;;;;;18.73;62.96;99240.28;5152963;27;20043;-80
2023/09/16 00:48:54;;;;;;;6.47;5.28;;;;;;;18.24;62.08;99159.66;5149771;27;20047;-79
2023/09/16 00:51:22;;;;;;;5.10;4.55;;;;;;;19.12;62.62;99305.63;5151955;27;20039;-79
2023/09/16 00:53:49;;;;;;;7.50;5.15;;;;;;;19.11;61.95;99309.31;5135097;27;20035;-80
2023/09/16 00:56:17;;;;;;;5.78;5.05;;;;;;;19.04;62.88;99306.31;5152195;27;20106;-80
2023/09/16 00:58:45;;;;;;;6.13;4.90;;;;;;;19.07;62.65;99308.72;5152417;27;20043;-80
2023/09/16 01:01:14;;;;;;;5.68;4.85;;;;;;;19.04;62.84;99313.53;5151295;27;20043;-80
2023/09/16 01:03:42;;;;;;;8.63;5.40;;;;;;;18.97;62.57;99304.34;5152248;27;20046;-79
2023/09/16 01:06:10;;;;;;;5.57;4.97;;;;;;;18.96;62.98;99302.63;5151547;27;20043;-79
2023/09/16 01:08:37;;;;;;;6.95;5.00;;;;;;;18.93;63.30;99303.75;5147851;27;20039;-79
2023/09/16 01:11:05;;;;;;;6.45;5.85;;;;;;;18.91;62.46;99297.69;5148439;27;20043;-80
2023/09/16 01:13:34;;;;;;;6.40;5.47;;;;;;;18.94;62.26;99297.41;5149453;27;20031;-80
2023/09/16 01:16:09;;;;;;;5.90;5.40;;;;;;;18.77;62.18;99301.63;5148655;27;20212;-81
2023/09/16 01:18:39;;;;;;;5.63;5.00;;;;;;;18.62;61.60;99304.81;5147854;27;20050;-80
2023/09/16 01:21:07;;;;;;;6.00;5.40;;;;;;;18.53;62.31;99301.97;5147307;27;20035;-76
2023/09/16 01:23:34;;;;;;;5.38;4.78;;;;;;;18.66;61.93;99296.34;5147842;27;20198;-76
2023/09/16 01:26:03;;;;;;;6.55;5.53;;;;;;;18.57;62.44;99302.53;5147585;27;20283;-78
2023/09/16 01:28:30;;;;;;;8.00;5.60;;;;;;;18.69;62.19;99304.13;5148121;27;20077;-78
2023/09/16 01:30:58;;;;;;;6.13;5.03;;;;;;;18.48;62.49;99255.03;5147218;27;20046;-80
2023/09/16 01:33:32;;;;;;;7.28;5.20;;;;;;;18.68;62.73;99294.38;5148510;27;20043;-79
2023/09/16 01:36:02;;;;;;;;;;;;;;;18.72;62.63;99294.97;5148671;27;20042;-80
2023/09/16 01:38:31;;;;;;;5.85;4.93;;;;;;;18.80;61.94;99295.97;5147578;27;19915;-80
2023/09/16 01:40:58;;;;;;;6.35;5.38;;;;;;;18.74;61.51;99288.47;5147526;27;20039;-79
2023/09/16 01:43:27;;;;;;;5.43;4.57;;;;;;;18.75;62.13;99294.69;5146478;27;20062;-79
2023/09/16 01:45:54;;;;;;;5.40;4.80;;;;;;;18.78;61.45;99292.56;5146812;27;20096;-79
2023/09/16 01:48:20;;;;;;;6.68;5.97;;;;;;;18.56;61.16;99296.34;5147643;27;20314;-80
2023/09/16 01:50:47;;;;;;;9.23;6.13;;;;;;;18.43;61.45;99290.31;5147045;27;20088;-79
2023/09/16 01:53:14;;;;;;;6.82;6.13;;;;;;;18.30;61.83;99291.53;5146565;27;20088;-79
2023/09/16 01:55:40;;;;;;;6.57;5.63;;;;;;;18.43;62.42;99289.47;5146582;27;20043;-79
2023/09/16 01:58:08;;;;;;;6.57;5.10;;;;;;;18.57;62.51;99297.19;5148191;27;20066;-80
2023/09/16 02:00:36;;;;;;;6.70;5.88;;;;;;;18.51;62.49;99292.31;5148015;27;20225;-79
2023/09/16 02:03:03;;;;;;;7.40;5.25;;;;;;;18.58;62.68;99297.03;5147568;27;20042;-79
2023/09/16 02:05:30;;;;;;;6.70;6.05;;;;;;;18.04;63.08;99208.84;5147872;27;20255;-79
2023/09/16 02:07:58;;;;;;;6.07;5.45;;;;;;;18.43;63.67;99287.63;5146284;27;20043;-79
2023/09/16 02:10:26;;;;;;;6.90;5.93;;;;;;;18.53;63.16;99295.75;5147814;27;20330;-79
2023/09/16 02:12:52;;;;;;;7.55;6.63;;;;;;;18.54;63.20;99297.44;5147988;27;20088;-79
2023/09/16 02:15:19;;;;;;;6.93;6.15;;;;;;;18.50;62.18;99296.84;5147465;27;20218;-79
2023/09/16 02:17:47;;;;;;;6.57;5.93;;;;;;;18.43;62.57;99302.88;5146645;27;20055;-79
2023/09/16 02:20:16;;;;;;;6.63;5.93;;;;;;;18.51;62.45;99300.38;5147859;27;20051;-79
2023/09/16 02:22:45;;;;;;;7.97;6.93;;;;;;;17.19;61.92;99098.38;5147788;28;20241;-79
2023/09/16 02:25:12;;;;;;;6.50;5.82;;;;;;;17.89;62.33;99245.91;5147597;27;20328;-79
2023/09/16 02:27:39;;;;;;;7.10;5.90;;;;;;;18.17;62.89;99299.81;5146509;28;20054;-79
2023/09/16 02:30:07;;;;;;;6.97;6.28;;;;;;;18.16;62.40;99300.78;5147670;27;20051;-79
2023/09/16 02:32:35;;;;;;;8.10;6.43;;;;;;;18.26;63.00;99305.22;5147574;28;20039;-79
2023/09/16 02:35:03;;;;;;;7.07;5.95;;;;;;;18.31;62.83;99304.81;5147170;28;20080;-79
2023/09/16 02:37:29;;;;;;;8.73;6.10;;;;;;;18.42;62.21;99301.19;5147538;28;20069;-79
2023/09/16 02:39:56;;;;;;;6.43;5.72;;;;;;;18.46;61.79;99297.25;5147175;28;20074;-79
2023/09/16 02:42:23;;;;;;;8.35;6.13;;;;;;;18.25;61.98;99294.63;5148057;28;20043;-79
2023/09/16 02:44:50;;;;;;;9.95;6.35;;;;;;;17.95;62.53;99298.16;5147275;27;20039;-79
2023/09/16 02:47:17;;;;;;;6.85;6.00;;;;;;;18.10;62.90;99301.34;5147437;28;20088;-79
2023/09/16 02:49:43;;;;;;;7.38;6.32;;;;;;;18.11;62.83;99294.97;5146704;28;20035;-79
2023/09/16 02:52:11;;;;;;;5.95;5.35;;;;;;;18.27;62.74;99300.72;5147623;27;20303;-79
2023/09/16 02:54:38;;;;;;;7.55;6.35;;;;;;;16.44;62.73;99031.66;5148022;27;20084;-79
2023/09/16 02:57:05;;;;;;;7.55;6.43;;;;;;;18.10;62.74;99298.66;5147629;28;20039;-80
2023/09/16 02:59:31;;;;;;;6.60;5.97;;;;;;;17.33;63.50;99229.31;5147026;28;20043;-79
2023/09/16 03:01:58;;;;;;;7.28;6.30;;;;;;;18.03;62.93;99302.84;5147377;28;20047;-79
2023/09/16 03:04:25;;;;;;;6.85;6.15;;;;;;;18.04;63.47;99309.91;5146732;28;20047;-80
2023/09/16 03:06:53;;;;;;;7.13;5.40;;;;;;;17.77;63.23;99264.88;5147209;28;20043;-79
2023/09/16 03:09:22;;;;;;;6.45;5.82;;;;;;;18.04;63.05;99310.75;5147233;28;20043;-80
2023/09/16 03:11:48;;;;;;;7.20;6.40;;;;;;;17.92;63.59;99304.63;5147472;27;20039;-79
2023/09/16 03:14:15;;;;;;;8.55;6.00;;;;;;;17.80;63.74;99296.78;5146016;28;20035;-79
2023/09/16 03:16:42;;;;;;;6.28;5.68;;;;;;;17.91;64.04;99294.88;5146610;28;20066;-80
2023/09/16 03:19:10;;;;;;;6.53;5.35;;;;;;;18.03;63.75;99309.06;5145728;27;20039;-80
2023/09/16 03:21:36;;;;;;;6.38;5.78;;;;;;;18.08;63.28;99300.63;5149755;27;20092;-79
2023/09/16 03:24:03;;;;;;;6.68;5.95;;;;;;;18.02;63.02;99299.31;5149961;27;20176;-80
2023/09/16 03:26:31;;;;;;;8.77;6.45;;;;;;;17.79;64.15;99314.69;5150076;27;20118;-80
2023/09/16 03:28:58;;;;;;;8.27;5.53;;;;;;;17.93;64.51;99305.47;5151416;27;20035;-79
2023/09/16 03:31:25;;;;;;;6.75;5.88;;;;;;;17.97;63.46;99301.53;5151837;27;20299;-80
2023/09/16 03:33:52;;;;;;;6.90;5.85;;;;;;;18.02;63.19;99299.31;5151566;27;20123;-79
2023/09/16 03:36:18;;;;;;;7.30;5.55;;;;;;;17.99;63.27;99294.22;5150461;27;20047;-80
2023/09/16 03:38:47;;;;;;;6.68;5.45;;;;;;;17.84;63.17;99299.06;5151160;27;20076;-80
2023/09/16 03:41:15;;;;;;;8.43;7.60;;;;;;;17.70;63.88;99296.72;5151048;27;20047;-79
2023/09/16 03:43:43;;;;;;;9.80;7.15;;;;;;;17.54;64.17;99297.16;5151379;27;20237;-79
2023/09/16 03:46:10;;;;;;;7.35;6.47;;;;;;;17.33;64.38;99268.66;5151461;27;20051;-79
2023/09/16 03:48:37;;;;;;;7.10;6.18;;;;;;;17.73;64.00;99293.78;5151104;27;20051;-79
2023/09/16 03:51:06;;;;;;;6.75;5.70;;;;;;;17.26;64.57;99230.81;5150424;27;20051;-79
2023/09/16 03:53:34;;;;;;;6.03;5.43;;;;;;;17.69;64.75;99287.00;5150243;27;20031;-79
2023/09/16 03:56:05;;;;;;;6.70;6.03;;;;;;;17.74;65.38;99289.28;5149407;27;20058;-79
2023/09/16 03:58:32;;;;;;;6.00;5.30;;;;;;;17.34;64.51;99212.25;5149479;27;20051;-79
2023/09/16 04:01:02;;;;;;;6.72;6.05;;;;;;;17.77;64.70;99279.13;5151080;27;20043;-79
2023/09/16 04:03:29;;;;;;;7.65;5.82;;;;;;;17.61;64.90;99281.44;5150797;27;20062;-79
2023/09/16 04:05:58;;;;;;;7.55;6.65;;;;;;;17.44;65.48;99279.31;5149649;27;20050;-79
2023/09/16 04:08:25;;;;;;;8.18;6.60;;;;;;;17.52;65.39;99296.44;5151063;27;20229;-79
2023/09/16 04:10:52;;;;;;;9.02;6.30;;;;;;;17.40;65.71;99289.44;5150445;27;20062;-79
2023/09/16 04:13:19;;;;;;;6.60;6.00;;;;;;;17.22;66.61;99285.63;5150612;27;20043;-79
2023/09/16 04:15:45;;;;;;;8.73;7.07;;;;;;;17.16;66.68;99275.38;5148907;27;20075;-79
2023/09/16 04:18:14;;;;;;;8.73;6.93;;;;;;;17.09;67.20;99292.94;5149903;27;20104;-80
2023/09/16 04:20:40;;;;;;;6.80;6.00;;;;;;;17.23;67.44;99293.53;5150484;27;20103;-80
2023/09/16 04:23:08;;;;;;;6.82;6.13;;;;;;;17.43;66.95;99293.69;5150371;27;20195;-80
2023/09/16 04:25:35;;;;;;;9.77;6.53;;;;;;;17.42;66.28;99286.63;5150128;27;20081;-80
2023/09/16 04:28:03;;;;;;;7.53;6.72;;;;;;;16.06;66.71;99073.13;5150076;27;20039;-79
2023/09/16 04:30:30;;;;;;;8.52;6.55;;;;;;;17.45;66.94;99297.94;5150516;27;20070;-79
2023/09/16 04:32:57;;;;;;;7.50;5.97;;;;;;;17.54;66.64;99296.31;5150608;27;20039;-79
2023/09/16 04:35:25;;;;;;;6.72;5.50;;;;;;;17.52;66.69;99298.25;5149830;27;20242;-80
2023/09/16 04:37:51;;;;;;;6.72;5.93;;;;;;;17.53;66.64;99300.81;5148196;27;20058;-79
2023/09/16 04:40:20;;;;;;;7.03;5.65;;;;;;;17.50;66.01;99276.09;5149425;27;20054;-80
2023/09/16 04:42:46;;;;;;;6.97;5.70;;;;;;;17.54;66.60;99299.81;5150199;27;20054;-80
2023/09/16 04:45:15;;;;;;;7.07;6.07;;;;;;;17.46;66.44;99302.31;5148212;27;20039;-80
2023/09/16 04:47:43;;;;;;;7.68;6.88;;;;;;;17.41;66.74;99299.16;5149535;27;20243;-80
2023/09/16 04:50:10;;;;;;;8.15;7.28;;;;;;;17.11;67.88;99307.06;5148997;27;20046;-80
2023/09/16 04:52:38;;;;;;;8.07;6.85;;;;;;;17.11;67.71;99312.41;5152595;27;20042;-79
2023/09/16 04:55:06;;;;;;;7.25;6.55;;;;;;;16.75;67.89;99260.06;5148044;27;20060;-79
2023/09/16 04:57:34;;;;;;;7.53;6.68;;;;;;;17.18;67.37;99316.28;5149722;27;20077;-80
2023/09/16 05:00:05;;;;;;;7.57;6.30;;;;;;;17.04;68.14;99321.91;5149373;27;20039;-80
2023/09/16 05:02:32;;;;;;;7.88;6.85;;;;;;;17.03;68.17;99320.22;5149463;27;20043;-79
2023/09/16 05:04:59;;;;;;;7.70;6.47;;;;;;;16.95;68.50;99329.72;5148876;27;20043;-80
2023/09/16 05:07:25;;;;;;;8.13;6.20;;;;;;;16.89;68.80;99335.59;5149592;27;20088;-80
2023/09/16 05:09:53;;;;;;;7.05;6.05;;;;;;;16.83;69.25;99329.88;5149567;27;20043;-79
2023/09/16 05:12:20;;;;;;;7.80;5.75;;;;;;;16.88;69.36;99323.19;5149191;27;20051;-80
2023/09/16 05:14:48;;;;;;;6.72;6.03;;;;;;;16.99;68.99;99333.84;5149372;27;20050;-80
2023/09/16 05:17:15;;;;;;;6.13;5.53;;;;;;;16.54;68.64;99254.63;5148970;27;20067;-79
2023/09/16 05:19:42;;;;;;;8.32;6.32;;;;;;;17.09;68.82;99325.91;5148869;27;20055;-80
2023/09/16 05:22:08;;;;;;;9.95;7.57;;;;;;;16.92;69.14;99324.63;5148225;27;20355;-79
2023/09/16 05:24:35;;;;;;;8.75;6.38;;;;;;;16.96;68.76;99330.59;5149147;27;20084;-79
2023/09/16 05:27:04;;;;;;;9.27;7.38;;;;;;;16.87;69.37;99340.22;5148863;27;20039;-79
2023/09/16 05:29:31;;;;;;;7.40;6.53;;;;;;;15.28;69.06;99066.03;5148027;27;20039;-79
2023/09/16 05:31:59;;;;;;;12.55;6.90;;;;;;;17.02;69.00;99332.75;5147580;27;20084;-79
2023/09/16 05:34:25;;;;;;;7.43;5.75;;;;;;;17.07;68.73;99337.72;5147865;27;20330;-79
2023/09/16 05:36:52;;;;;;;7.10;6.38;;;;;;;17.14;68.60;99338.94;5147546;27;20080;-80
2023/09/16 05:39:19;;;;;;;6.82;6.10;;;;;;;17.02;68.40;99334.59;5148315;27;20035;-80
2023/09/16 05:41:47;;;;;;;6.65;5.97;;;;;;;17.15;68.94;99397.72;5148562;27;20043;-79
2023/09/16 05:44:15;;;;;;;8.38;5.95;;;;;;;17.16;68.81;99331.63;5147688;27;20200;-80
2023/09/16 05:46:42;;;;;;;6.57;5.85;;;;;;;17.29;68.42;99330.50;5147410;27;20039;-80
2023/09/16 05:49:09;;;;;;;7.10;6.20;;;;;;;16.70;68.32;99241.72;5148974;27;20307;-80
2023/09/16 05:51:36;;;;;;;6.03;5.43;;;;;;;16.55;68.34;99253.63;5148388;27;20188;-79
2023/09/16 05:54:03;;;;;;;8.90;5.40;;;;;;;17.34;68.39;99342.66;5148253;27;20190;-79
2023/09/16 05:56:30;;;;;;;6.63;5.40;;;;;;;17.45;67.79;99334.59;5130703;27;20091;-80
2023/09/16 05:58:57;;;;;;;8.73;6.10;;;;;;;17.39;67.49;99338.63;5148945;27;20303;-80
2023/09/16 06:01:25;;;;;;;6.85;6.07;;;;;;;17.43;67.85;99344.59;5149922;27;20234;-80
2023/09/16 06:03:52;;;;;;;6.05;5.32;;;;;;;17.53;67.67;99342.84;5148902;27;20057;-80
2023/09/16 06:06:19;;;;;;;6.03;5.43;;;;;;;17.56;67.23;99340.75;5131053;27;20329;-80
2023/09/16 06:08:46;;;;;;;7.10;6.13;;;;;;;17.49;67.70;99333.34;5148047;27;20351;-79
2023/09/16 06:11:13;;;;;;;8.90;6.35;;;;;;;17.21;67.74;99289.28;5149220;27;20051;-79
2023/09/16 06:13:40;;;;;;;6.85;6.15;;;;;;;17.46;67.72;99342.50;5149139;27;20039;-79
2023/09/16 06:16:07;;;;;;;6.60;5.90;;;;;;;17.62;67.32;99339.41;5150309;27;20038;-80
2023/09/16 06:18:35;;;;;;;7.38;5.68;;;;;;;17.57;67.78;99336.22;5150237;27;20043;-79
2023/09/16 06:21:02;;;;;;;6.65;5.93;;;;;;;17.69;67.49;99337.91;5149275;27;20126;-79
2023/09/16 06:23:29;;;;;;;9.48;5.45;;;;;;;17.38;66.81;99291.38;5150887;27;20180;-79
2023/09/16 06:25:56;;;;;;;7.93;5.70;;;;;;;17.29;67.72;99265.38;5148829;28;20047;-79
2023/09/16 06:28:23;;;;;;;8.02;6.15;;;;;;;17.85;67.46;99326.72;5149013;28;20046;-79
2023/09/16 06:30:50;;;;;;;5.65;5.03;;;;;;;17.93;67.51;99321.56;5150452;27;20088;-79
2023/09/16 06:33:16;;;;;;;7.35;5.25;;;;;;;17.86;66.18;99321.25;5147253;28;20092;-78
2023/09/16 06:35:44;;;;;;;7.95;5.10;;;;;;;17.91;66.37;99318.16;5147055;27;20088;-78
2023/09/16 06:38:11;;;;;;;6.97;5.70;;;;;;;17.95;65.98;99320.44;5147367;27;20065;-78
2023/09/16 06:40:38;;;;;;;7.40;5.47;;;;;;;18.02;66.14;99317.25;5147508;27;20062;-79
2023/09/16 06:43:05;;;;;;;7.15;5.45;;;;;;;18.03;66.16;99317.09;5147202;27;20096;-79
2023/09/16 06:45:32;;;;;;;6.13;5.10;;;;;;;17.59;66.43;99217.22;5147296;28;20051;-79
2023/09/16 06:47:58;;;;;;;5.00;4.50;;;;;;;18.23;66.07;99321.59;5147079;27;20063;-79
2023/09/16 06:50:25;;;;;;;5.50;4.80;;;;;;;18.23;65.65;99323.41;5147809;28;20176;-78
2023/09/16 06:52:53;;;;;;;7.70;5.30;;;;;;;18.28;65.50;99305.94;5149203;28;20047;-79
2023/09/16 06:55:20;;;;;;;7.38;5.60;;;;;;;16.58;65.76;99026.84;5152060;27;20099;-79
2023/09/16 06:57:47;;;;;;;6.18;5.43;;;;;;;18.47;65.22;99301.63;5154109;27;20095;-79
2023/09/16 07:00:15;;;;;;;12.07;5.07;;;;;;;18.46;64.31;99300.78;5152851;27;20346;-79
2023/09/16 07:02:41;;;;;;;5.45;4.82;;;;;;;18.57;65.62;99306.06;5152711;27;20043;-79
2023/09/16 07:05:10;;;;;;;5.63;4.10;;;;;;;18.64;64.53;99313.59;5153557;27;20060;-79
2023/09/16 07:07:36;;;;;;;5.78;4.80;;;;;;;18.73;65.51;99302.88;5154476;27;20073;-79
2023/09/16 07:10:06;;;;;;;5.05;4.55;;;;;;;18.77;64.09;99295.41;5152526;27;20360;-79
2023/09/16 07:12:32;;;;;;;5.95;4.90;;;;;;;18.85;65.16;99299.09;5154049;27;20233;-79
2023/09/16 07:14:59;;;;;;;4.82;4.10;;;;;;;18.93;64.47;99306.44;5153324;27;20031;-80
2023/09/16 07:17:26;;;;;;;5.50;4.32;;;;;;;19.01;63.65;99295.00;5153234;27;20054;-79
2023/09/16 07:19:52;;;;;;;6.20;5.28;;;;;;;19.02;62.71;99312.81;5152423;27;20038;-78
2023/09/16 07:22:20;;;;;;;7.47;4.78;;;;;;;18.74;63.18;99248.19;5152085;27;20118;-79
2023/09/16 07:24:46;;;;;;;5.30;4.32;;;;;;;19.12;62.81;99302.94;5153351;27;20367;-79
2023/09/16 07:27:15;;;;;;;4.88;4.05;;;;;;;18.66;63.25;99214.97;5152776;27;20095;-80
2023/09/16 07:29:42;;;;;;;5.03;4.40;;;;;;;19.26;62.30;99302.53;5152433;27;20039;-79
2023/09/16 07:32:09;;;;;;;6.07;4.10;;;;;;;19.36;62.25;99298.00;5153151;27;20196;-79
2023/09/16 07:34:35;;;;;;;5.28;4.78;;;;;;;18.42;61.66;99124.09;5153542;27;20043;-79
2023/09/16 07:37:03;;;;;;;5.43;4.15;;;;;;;19.49;61.05;99301.28;5151938;27;20092;-77
2023/09/16 07:39:30;;;;;;;5.32;4.20;;;;;;;19.55;61.48;99308.78;5149711;27;20039;-78
2023/09/16 07:41:57;;;;;;;4.57;3.92;;;;;;;19.47;61.88;99279.06;5151108;27;20080;-79
2023/09/16 07:44:26;;;;;;;4.85;3.95;;;;;;;19.78;60.96;99295.88;5150213;27;20064;-78
2023/09/16 07:46:53;;;;;;;4.43;3.60;;;;;;;19.85;60.65;99301.53;5150451;27;20050;-78
2023/09/16 07:49:19;;;;;;;5.50;3.75;;;;;;;19.96;59.75;99293.31;5150960;27;20176;-78
2023/09/16 07:51:46;;;;;;;4.57;3.92;;;;;;;20.05;59.46;99295.13;5150409;27;20051;-79
2023/09/16 07:54:14;;;;;;;5.78;3.83;;;;;;;19.42;59.70;99191.81;5150145;27;20092;-79
2023/09/16 07:56:41;;;;;;;6.40;3.80;;;;;;;20.11;59.59;99291.84;5150250;27;20273;-79
2023/09/16 07:59:07;;;;;;;7.35;4.00;;;;;;;18.84;59.40;99101.38;5150827;27;20225;-77
2023/09/16 08:01:35;;;;;;;5.18;4.45;;;;;;;20.19;58.27;99300.03;5151533;27;20051;-79
2023/09/16 08:04:02;;;;;;;4.63;3.60;;;;;;;20.32;57.86;99290.81;5152122;27;20043;-79
2023/09/16 08:06:29;;;;;;;4.63;3.40;;;;;;;20.46;57.48;99293.03;5152089;27;20060;-79
2023/09/16 08:08:55;;;;;;;4.22;3.45;;;;;;;20.53;58.05;99296.81;5152543;27;20096;-79
2023/09/16 08:11:22;;;;;;;6.53;3.70;;;;;;;20.48;56.41;99296.41;5151477;27;20180;-78
2023/09/16 08:13:51;;;;;;;4.05;3.03;;;;;;;20.53;57.23;99287.88;5152328;27;20042;-79
2023/09/16 08:16:17;;;;;;;4.70;3.90;;;;;;;20.67;56.16;99287.38;5151641;27;20213;-79
2023/09/16 08:18:46;;;;;;;5.15;4.22;;;;;;;19.32;55.90;99027.88;5152695;27;20230;-79
2023/09/16 08:21:14;;;;;;;6.30;3.83;;;;;;;20.88;55.25;99279.03;5151977;27;20039;-79
2023/09/16 08:23:42;;;;;;;4.03;3.53;;;;;;;20.88;56.20;99289.81;5151899;27;20050;-79
2023/09/16 08:26:08;;;;;;;10.13;5.50;;;;;;;21.17;54.99;99284.25;5152639;27;20039;-79
2023/09/16 08:28:36;;;;;;;4.95;3.80;;;;;;;20.27;55.46;99131.66;5152409;27;20039;-79
2023/09/16 08:31:04;;;;;;;4.38;2.90;;;;;;;21.26;54.34;99278.78;5152654;27;20047;-78
2023/09/16 08:33:30;;;;;;;6.00;3.20;;;;;;;21.28;53.98;99267.84;5153237;27;20168;-79
2023/09/16 08:35:59;;;;;;;4.70;3.40;;;;;;;21.00;54.64;99223.94;5158279;27;20035;-79
2023/09/16 08:38:25;;;;;;;4.93;3.42;;;;;;;21.32;54.71;99266.53;5156806;27;20043;-80
2023/09/16 08:40:57;;;;;;;5.60;3.30;;;;;;;21.41;53.82;99273.69;5157265;27;20043;-79
2023/09/16 08:43:33;;;;;;;6.35;3.15;;;;;;;21.46;53.96;99272.22;5156482;27;20039;-79
2023/09/16 08:46:03;;;;;;;4.63;3.17;;;;;;;21.50;53.56;99285.38;5154769;27;20042;-79
2023/09/16 08:48:33;;;;;;;5.80;3.40;;;;;;;21.50;53.83;99264.66;5155096;27;20043;-78
2023/09/16 08:51:02;;;;;;;4.35;2.92;;;;;;;21.62;53.59;99271.50;5152779;27;20074;-79
2023/09/16 08:53:31;;;;;;;4.63;3.63;;;;;;;21.68;52.86;99278.13;5149683;27;20039;-77
2023/09/16 08:55:59;;;;;;;7.13;3.72;;;;;;;21.71;51.95;99281.34;5149333;27;20035;-76
2023/09/16 08:58:27;;;;;;;5.40;3.17;;;;;;;21.74;51.92;99267.56;5149111;27;20314;-77
2023/09/16 09:00:54;;;;;;;9.80;3.00;;;;;;;21.72;52.05;99269.56;5149108;27;20039;-77
2023/09/16 09:03:22;;;;;;;3.85;2.80;;;;;;;21.73;51.65;99267.72;5149247;27;20069;-78
2023/09/16 09:05:49;;;;;;;3.97;2.45;;;;;;;21.78;52.62;99254.59;5149021;27;20054;-79
2023/09/16 09:08:17;;;;;;;4.68;3.15;;;;;;;21.86;52.11;99270.88;5148770;27;20304;-79
2023/09/16 09:10:44;;;;;;;8.43;3.50;;;;;;;21.82;51.57;99276.72;5148678;27;20299;-77
2023/09/16 09:13:13;;;;;;;5.07;2.78;;;;;;;21.71;52.08;99227.41;5148701;27;20073;-78
2023/09/16 09:15:42;;;;;;;3.58;2.97;;;;;;;22.00;51.74;99270.28;5149907;27;20053;-78
2023/09/16 09:18:12;;;;;;;4.05;2.80;;;;;;;21.75;51.43;99207.19;5146807;27;20043;-78
2023/09/16 09:20:39;;;;;;;5.38;3.10;;;;;;;22.04;51.97;99262.72;5149050;27;20077;-79
2023/09/16 09:23:06;;;;;;;4.55;3.00;;;;;;;22.20;51.47;99262.81;5152012;27;20043;-79
2023/09/16 09:25:36;;;;;;;4.43;2.90;;;;;;;22.07;50.99;99219.22;5148337;27;20043;-77
2023/09/16 09:28:05;;;;;;;4.28;2.75;;;;;;;22.31;51.96;99264.38;5149038;27;20040;-79
2023/09/16 09:30:32;;;;;;;4.10;3.05;;;;;;;21.80;50.53;99144.72;5148853;27;20294;-79
2023/09/16 09:33:01;;;;;;;3.92;3.05;;;;;;;22.33;50.80;99217.31;5147677;27;20042;-78
2023/09/16 09:35:29;;;;;;;5.93;3.00;;;;;;;22.68;50.00;99247.88;5147950;27;20295;-78
2023/09/16 09:37:57;;;;;;;3.38;2.78;;;;;;;22.63;50.36;99240.25;5147893;27;20043;-78
2023/09/16 09:40:24;;;;;;;3.88;3.00;;;;;;;22.61;50.79;99244.97;5146221;27;20096;-77
2023/09/16 09:42:53;;;;;;;5.35;2.80;;;;;;;22.61;51.35;99246.84;5147608;27;20326;-77
2023/09/16 09:45:22;;;;;;;8.32;3.55;;;;;;;22.79;50.36;99244.00;5147212;27;20054;-78
2023/09/16 09:47:53;;;;;;;4.63;2.90;;;;;;;22.46;50.48;99203.38;5147298;27;20039;-78
2023/09/16 09:50:21;;;;;;;7.32;3.17;;;;;;;22.79;49.32;99244.00;5147666;27;20051;-77
2023/09/16 09:52:48;;;;;;;5.30;2.90;;;;;;;22.02;49.89;99141.44;5146321;27;20337;-77
2023/09/16 09:55:17;;;;;;;4.15;2.75;;;;;;;22.79;49.68;99254.81;5147612;27;20045;-78
2023/09/16 09:57:45;;;;;;;29.88;4.05;;;;;;;22.94;48.98;99236.97;5147059;27;20232;-78
2023/09/16 10:00:17;;;;;;;4.72;3.15;;;;;;;22.98;48.97;99266.19;5146225;27;20055;-78
2023/09/16 10:02:44;;;;;;;4.75;2.85;;;;;;;22.97;49.17;99261.78;5146992;27;20275;-76
2023/09/16 10:05:15;;;;;;;4.75;3.38;;;;;;;22.73;48.31;99170.72;5147224;27;20095;-78
2023/09/16 10:07:43;;;;;;;4.05;2.90;;;;;;;22.80;48.94;99216.00;5147372;27;20109;-76
2023/09/16 10:10:23;;;;;;;6.53;3.08;;;;;;;23.13;48.25;99244.75;5147410;27;20187;-77
2023/09/16 10:12:52;;;;;;;3.55;2.95;;;;;;;22.65;49.27;99192.31;5146587;27;20100;-76
2023/09/16 10:15:25;;;;;;;3.28;2.72;;;;;;;22.87;48.73;99233.22;5147278;27;20049;-77
2023/09/16 10:17:52;;;;;;;5.50;2.90;;;;;;;23.12;49.09;99234.94;5146551;27;20303;-77
2023/09/16 10:20:20;;;;;;;3.63;2.50;;;;;;;23.09;49.27;99234.44;5147102;27;20103;-77
2023/09/16 10:22:46;;;;;;;4.97;2.97;;;;;;;23.03;49.40;99206.22;5129545;28;20039;-77
2023/09/16 10:25:13;;;;;;;4.72;3.10;;;;;;;23.37;48.72;99222.31;5146948;27;20043;-78
2023/09/16 10:27:49;;;;;;;3.92;2.78;;;;;;;22.49;48.28;99088.78;5146384;28;20292;-78
2023/09/16 10:30:18;;;;;;;6.63;3.08;;;;;;;23.35;48.61;99227.91;5146834;27;20047;-78
2023/09/16 10:32:47;;;;;;;4.95;3.03;;;;;;;23.36;48.46;99224.19;5145758;28;20049;-76
2023/09/16 10:35:15;;;;;;;4.47;2.90;;;;;;;23.50;47.60;99227.22;5145798;28;20043;-76
2023/09/16 10:37:45;;;;;;;4.40;2.88;;;;;;;23.58;47.08;99238.03;5146902;27;20039;-77
2023/09/16 10:40:13;;;;;;;3.97;2.53;;;;;;;23.59;47.72;99231.59;5146528;27;20046;-77
2023/09/16 10:42:42;;;;;;;6.25;2.72;;;;;;;23.57;47.56;99218.25;5146233;28;20043;-77
2023/09/16 10:45:13;;;;;;;4.57;2.63;;;;;;;23.64;47.76;99213.84;5146707;27;20043;-77
2023/09/16 10:47:41;;;;;;;5.05;2.67;;;;;;;23.63;48.54;99222.97;5146592;28;20225;-77
2023/09/16 10:50:11;;;;;;;4.60;2.80;;;;;;;23.65;46.91;99217.41;5145510;28;20031;-77
2023/09/16 10:52:55;;;;;;;6.53;3.33;;;;;;;23.37;47.87;99187.16;5145591;28;20290;-77
2023/09/16 10:55:25;;;;;;;;;;;;;;;23.57;47.34;99212.00;5147148;28;20039;-77
2023/09/16 10:57:58;;;;;;;5.15;2.60;;;;;;;23.59;46.63;99216.22;5128626;28;19926;-77
2023/09/16 11:00:27;;;;;;;4.13;3.03;;;;;;;23.69;46.29;99207.91;5146772;28;20047;-76
2023/09/16 11:02:58;;;;;;;4.50;2.83;;;;;;;23.86;46.06;99238.50;5128406;28;20112;-76
2023/09/16 11:05:27;;;;;;;4.45;2.97;;;;;;;23.23;46.22;99118.38;5145902;28;20070;-77
2023/09/16 11:07:55;;;;;;;3.17;2.85;;;;;;;23.27;46.47;99129.72;5146107;28;20237;-77
2023/09/16 11:10:23;;;;;;;5.10;2.30;;;;;;;23.88;46.47;99204.84;5145699;28;20031;-77
2023/09/16 11:12:51;;;;;;;4.43;2.60;;;;;;;23.89;46.67;99200.25;5145803;28;20058;-77
2023/09/16 11:15:19;;;;;;;4.82;2.90;;;;;;;24.00;45.24;99198.06;5146679;28;20291;-77
2023/09/16 11:17:47;;;;;;;3.88;2.50;;;;;;;23.99;45.25;99190.97;5147466;28;20055;-78
2023/09/16 11:20:21;;;;;;;5.38;2.47;;;;;;;23.30;45.37;99092.38;5148214;27;20043;-77
2023/09/16 11:22:50;;;;;;;3.45;2.53;;;;;;;24.02;44.89;99194.34;5146450;28;20035;-77
2023/09/16 11:25:17;;;;;;;5.15;2.60;;;;;;;24.05;44.64;99188.56;5146526;28;20050;-77
2023/09/16 11:27:44;;;;;;;4.38;3.20;;;;;;;24.18;44.59;99175.31;5146075;28;20038;-78
2023/09/16 11:30:12;;;;;;;4.25;2.20;;;;;;;24.12;44.44;99186.84;5146469;28;20043;-77
2023/09/16 11:32:42;;;;;;;3.45;2.67;;;;;;;24.12;43.98;99201.25;5146433;27;20161;-78
2023/09/16 11:35:10;;;;;;;4.55;2.45;;;;;;;24.04;44.18;99189.59;5145570;28;20336;-77
2023/09/16 11:37:37;;;;;;;4.38;2.35;;;;;;;24.07;43.91;99181.97;5144928;28;20084;-77